Ryuhomaru — JD2639 — position and weather

sailwx.info

Track history (hours):
 
Tides and Currents Weather Stations Pressure Air Temp Water Temp Dewpoint Dewpoint Depression Visibility Wind Speed Wind Dir Waves Ship Positions

Ryuhomaru

Last reported at 2016-Dec-07 05:33 UTC. Time now 2016-Dec-07 10:36 UTC.
Position N 34°33' E 135°27'.

Length 42 m; draft 3.5 m.

Type: Tug. MMSI: 431000586.

Date/timePositionNaut miles runAvg speedWind from/ knotsBaromVisibWave heightAir tempDewpointWater temp
2016-Dec-07 05:33N 34°33' E 135°27'3 2.6
2016-Dec-07 04:33N 34°35' E 135°24'4 4.3
2016-Dec-07 03:33N 34°39' E 135°24'3 2.8
2016-Dec-07 02:33N 34°36' E 135°24'0 0.0
2016-Dec-07 01:33N 34°36' E 135°24'3 3.0
2016-Dec-07 00:30N 34°33' E 135°26'0 0.2
2016-Dec-06 23:33N 34°33' E 135°26'1 0.5
2016-Dec-06 22:33N 34°33' E 135°27'0 0.0
2016-Dec-06 07:11N 34°33' E 135°27'1 1.3
2016-Dec-06 06:10N 34°33' E 135°25'1 1.1
2016-Dec-06 05:33N 34°33' E 135°25'4 3.5
2016-Dec-06 04:32N 34°33' E 135°21'5 1.6
2016-Dec-06 01:32N 34°33' E 135°27'1 1.2
2016-Dec-06 00:28N 34°33' E 135°25'1 0.6
2016-Dec-05 23:33N 34°33' E 135°26'1 0.8
2016-Dec-05 22:33N 34°33' E 135°27'0 0.0
2016-Dec-05 07:18N 34°33' E 135°27'1 0.8
2016-Dec-05 06:33N 34°33' E 135°26'0 0.1
2016-Dec-05 05:33N 34°33' E 135°26'4 4.0
2016-Dec-05 04:33N 34°33' E 135°21'3 2.5
2016-Dec-05 03:32N 34°32' E 135°23'1 0.4
2016-Dec-05 01:33N 34°32' E 135°24'1 1.4
2016-Dec-05 00:32N 34°33' E 135°23'3 3.1
2016-Dec-04 23:28N 34°33' E 135°27'0 0.0
2016-Dec-04 05:33N 34°33' E 135°27'2 2.0
2016-Dec-04 04:29N 34°33' E 135°24'0 0.3
2016-Dec-04 03:33N 34°33' E 135°24'0 0.1
2016-Dec-04 02:33N 34°33' E 135°24'0 0.1
2016-Dec-04 01:33N 34°33' E 135°24'0 0.1
2016-Dec-04 00:30N 34°33' E 135°24'0 0.1
2016-Dec-03 23:30N 34°33' E 135°24'0 0.1
2016-Dec-03 22:33N 34°33' E 135°24'0 0.1
2016-Dec-03 21:33N 34°33' E 135°24'0 0.0
2016-Dec-03 20:27N 34°33' E 135°24'0 0.1
2016-Dec-03 19:33N 34°33' E 135°24'0 0.1
2016-Dec-03 18:33N 34°33' E 135°24'0 0.1
2016-Dec-03 17:33N 34°33' E 135°24'0 0.0
2016-Dec-03 16:32N 34°33' E 135°24'0 0.1
2016-Dec-03 15:33N 34°33' E 135°24'0 0.1
2016-Dec-03 14:32N 34°33' E 135°24'0 0.1
2016-Dec-03 13:33N 34°33' E 135°24'0 0.1
2016-Dec-03 12:32N 34°33' E 135°24'0 0.1
2016-Dec-03 11:31N 34°33' E 135°24'0 0.1
2016-Dec-03 10:33N 34°33' E 135°24'0 0.1
2016-Dec-03 09:33N 34°33' E 135°24'0 0.1
2016-Dec-03 08:28N 34°33' E 135°24'0 0.1
2016-Dec-03 07:33N 34°33' E 135°24'0 0.0
2016-Dec-03 06:33N 34°33' E 135°24'0 0.1
2016-Dec-03 05:31N 34°33' E 135°24'0 0.2
2016-Dec-03 04:31N 34°33' E 135°24'0 0.3
2016-Dec-03 03:33N 34°33' E 135°24'5 4.9
2016-Dec-03 02:32N 34°32' E 135°18'5 1.3
2016-Dec-02 22:33N 34°32' E 135°24'2 1.8
2016-Dec-02 21:33N 34°33' E 135°23'3 2.7
2016-Dec-02 20:32N 34°33' E 135°27'0 0.0
2016-Dec-02 03:33N 34°33' E 135°27'0 0.0
2016-Dec-02 02:32N 34°33' E 135°27'5 1.8
2016-Dec-01 23:33N 34°33' E 135°20'5 4.4
2016-Dec-01 22:31N 34°33' E 135°26'1 0.8
2016-Dec-01 21:30N 34°33' E 135°27'0 0.0
2016-Dec-01 08:27N 34°33' E 135°27'4 3.8
2016-Dec-01 07:31N 34°31' E 135°23'4 3.7
2016-Dec-01 06:33N 34°33' E 135°27'0 0.0
2016-Dec-01 05:33N 34°33' E 135°27'0 0.0
2016-Dec-01 04:33N 34°33' E 135°27'0 0.0
2016-Dec-01 03:33N 34°33' E 135°27'1 0.9
2016-Dec-01 02:13N 34°33' E 135°25'0 0.3
2016-Dec-01 01:32N 34°33' E 135°25'1 1.0
2016-Dec-01 00:15N 34°33' E 135°27'0 0.0
2016-Nov-30 23:30N 34°33' E 135°27'0 0.0
2016-Nov-30 07:23N 34°33' E 135°27'4 4.3
2016-Nov-30 06:32N 34°36' E 135°23'3 3.1
2016-Nov-30 05:33N 34°39' E 135°24'3 2.6
2016-Nov-30 04:33N 34°36' E 135°24'0 0.0
2016-Nov-30 03:32N 34°36' E 135°24'0 0.0
2016-Nov-30 02:33N 34°36' E 135°24'3 2.7
2016-Nov-30 01:33N 34°39' E 135°24'6 5.5
2016-Nov-30 00:27N 34°33' E 135°27'0 0.0
2016-Nov-29 23:31N 34°33' E 135°27'0 0.0
2016-Nov-29 22:33N 34°33' E 135°27'0 0.0
2016-Nov-29 01:25N 34°33' E 135°27'2 2.2
2016-Nov-29 00:33N 34°33' E 135°24'1 0.5
2016-Nov-28 23:32N 34°33' E 135°25'3 2.6
2016-Nov-28 22:29N 34°31' E 135°23'1 0.9
2016-Nov-28 21:33N 34°32' E 135°23'3 3.1
2016-Nov-28 20:32N 34°33' E 135°27'0 0.0
2016-Nov-28 04:33N 34°33' E 135°27'4 3.4
2016-Nov-28 03:29N 34°31' E 135°23'4 3.9
2016-Nov-28 02:33N 34°33' E 135°27'0 0.0
2016-Nov-28 01:30N 34°33' E 135°27'1 1.2
2016-Nov-28 00:33N 34°33' E 135°25'0 0.2
2016-Nov-27 23:32N 34°33' E 135°25'3 3.0
2016-Nov-27 22:33N 34°33' E 135°21'4 4.0
2016-Nov-27 21:32N 34°33' E 135°26'0 0.4
2016-Nov-27 20:33N 34°33' E 135°27'  
Track history (hours):
 
Tides and Currents Weather Stations Pressure Air Temp Water Temp Dewpoint Dewpoint Depression Visibility Wind Speed Wind Dir Waves Ship Positions

Ryuhomaru

Last reported at 2016-Dec-07 05:33 UTC. Time now 2016-Dec-07 10:36 UTC.
Position N 34°33' E 135°27'.

Length 42 m; draft 3.5 m.

Type: Tug. MMSI: 431000586.

Date/timePositionNaut miles runAvg speedWind from/ knotsBaromVisibWave heightAir tempDewpointWater temp
2016-Dec-07 05:33N 34°33' E 135°27'3 2.6
2016-Dec-07 04:33N 34°35' E 135°24'4 4.3
2016-Dec-07 03:33N 34°39' E 135°24'3 2.8
2016-Dec-07 02:33N 34°36' E 135°24'0 0.0
2016-Dec-07 01:33N 34°36' E 135°24'3 3.0
2016-Dec-07 00:30N 34°33' E 135°26'0 0.2
2016-Dec-06 23:33N 34°33' E 135°26'1 0.5
2016-Dec-06 22:33N 34°33' E 135°27'0 0.0
2016-Dec-06 07:11N 34°33' E 135°27'1 1.3
2016-Dec-06 06:10N 34°33' E 135°25'1 1.1
2016-Dec-06 05:33N 34°33' E 135°25'4 3.5
2016-Dec-06 04:32N 34°33' E 135°21'5 1.6
2016-Dec-06 01:32N 34°33' E 135°27'1 1.2
2016-Dec-06 00:28N 34°33' E 135°25'1 0.6
2016-Dec-05 23:33N 34°33' E 135°26'1 0.8
2016-Dec-05 22:33N 34°33' E 135°27'0 0.0
2016-Dec-05 07:18N 34°33' E 135°27'1 0.8
2016-Dec-05 06:33N 34°33' E 135°26'0 0.1
2016-Dec-05 05:33N 34°33' E 135°26'4 4.0
2016-Dec-05 04:33N 34°33' E 135°21'3 2.5
2016-Dec-05 03:32N 34°32' E 135°23'1 0.4
2016-Dec-05 01:33N 34°32' E 135°24'1 1.4
2016-Dec-05 00:32N 34°33' E 135°23'3 3.1
2016-Dec-04 23:28N 34°33' E 135°27'0 0.0
2016-Dec-04 05:33N 34°33' E 135°27'2 2.0
2016-Dec-04 04:29N 34°33' E 135°24'0 0.3
2016-Dec-04 03:33N 34°33' E 135°24'0 0.1
2016-Dec-04 02:33N 34°33' E 135°24'0 0.1
2016-Dec-04 01:33N 34°33' E 135°24'0 0.1
2016-Dec-04 00:30N 34°33' E 135°24'0 0.1
2016-Dec-03 23:30N 34°33' E 135°24'0 0.1
2016-Dec-03 22:33N 34°33' E 135°24'0 0.1
2016-Dec-03 21:33N 34°33' E 135°24'0 0.0
2016-Dec-03 20:27N 34°33' E 135°24'0 0.1
2016-Dec-03 19:33N 34°33' E 135°24'0 0.1
2016-Dec-03 18:33N 34°33' E 135°24'0 0.1
2016-Dec-03 17:33N 34°33' E 135°24'0 0.0
2016-Dec-03 16:32N 34°33' E 135°24'0 0.1
2016-Dec-03 15:33N 34°33' E 135°24'0 0.1
2016-Dec-03 14:32N 34°33' E 135°24'0 0.1
2016-Dec-03 13:33N 34°33' E 135°24'0 0.1
2016-Dec-03 12:32N 34°33' E 135°24'0 0.1
2016-Dec-03 11:31N 34°33' E 135°24'0 0.1
2016-Dec-03 10:33N 34°33' E 135°24'0 0.1
2016-Dec-03 09:33N 34°33' E 135°24'0 0.1
2016-Dec-03 08:28N 34°33' E 135°24'0 0.1
2016-Dec-03 07:33N 34°33' E 135°24'0 0.0
2016-Dec-03 06:33N 34°33' E 135°24'0 0.1
2016-Dec-03 05:31N 34°33' E 135°24'0 0.2
2016-Dec-03 04:31N 34°33' E 135°24'0 0.3
2016-Dec-03 03:33N 34°33' E 135°24'5 4.9
2016-Dec-03 02:32N 34°32' E 135°18'5 1.3
2016-Dec-02 22:33N 34°32' E 135°24'2 1.8
2016-Dec-02 21:33N 34°33' E 135°23'3 2.7
2016-Dec-02 20:32N 34°33' E 135°27'0 0.0
2016-Dec-02 03:33N 34°33' E 135°27'0 0.0
2016-Dec-02 02:32N 34°33' E 135°27'5 1.8
2016-Dec-01 23:33N 34°33' E 135°20'5 4.4
2016-Dec-01 22:31N 34°33' E 135°26'1 0.8
2016-Dec-01 21:30N 34°33' E 135°27'0 0.0
2016-Dec-01 08:27N 34°33' E 135°27'4 3.8
2016-Dec-01 07:31N 34°31' E 135°23'4 3.7
2016-Dec-01 06:33N 34°33' E 135°27'0 0.0
2016-Dec-01 05:33N 34°33' E 135°27'0 0.0
2016-Dec-01 04:33N 34°33' E 135°27'0 0.0
2016-Dec-01 03:33N 34°33' E 135°27'1 0.9
2016-Dec-01 02:13N 34°33' E 135°25'0 0.3
2016-Dec-01 01:32N 34°33' E 135°25'1 1.0
2016-Dec-01 00:15N 34°33' E 135°27'0 0.0
2016-Nov-30 23:30N 34°33' E 135°27'0 0.0
2016-Nov-30 07:23N 34°33' E 135°27'4 4.3
2016-Nov-30 06:32N 34°36' E 135°23'3 3.1
2016-Nov-30 05:33N 34°39' E 135°24'3 2.6
2016-Nov-30 04:33N 34°36' E 135°24'0 0.0
2016-Nov-30 03:32N 34°36' E 135°24'0 0.0
2016-Nov-30 02:33N 34°36' E 135°24'3 2.7
2016-Nov-30 01:33N 34°39' E 135°24'6 5.5
2016-Nov-30 00:27N 34°33' E 135°27'0 0.0
2016-Nov-29 23:31N 34°33' E 135°27'0 0.0
2016-Nov-29 22:33N 34°33' E 135°27'0 0.0
2016-Nov-29 01:25N 34°33' E 135°27'2 2.2
2016-Nov-29 00:33N 34°33' E 135°24'1 0.5
2016-Nov-28 23:32N 34°33' E 135°25'3 2.6
2016-Nov-28 22:29N 34°31' E 135°23'1 0.9
2016-Nov-28 21:33N 34°32' E 135°23'3 3.1
2016-Nov-28 20:32N 34°33' E 135°27'0 0.0
2016-Nov-28 04:33N 34°33' E 135°27'4 3.4
2016-Nov-28 03:29N 34°31' E 135°23'4 3.9
2016-Nov-28 02:33N 34°33' E 135°27'0 0.0
2016-Nov-28 01:30N 34°33' E 135°27'1 1.2
2016-Nov-28 00:33N 34°33' E 135°25'0 0.2
2016-Nov-27 23:32N 34°33' E 135°25'3 3.0
2016-Nov-27 22:33N 34°33' E 135°21'4 4.0
2016-Nov-27 21:32N 34°33' E 135°26'0 0.4
2016-Nov-27 20:33N 34°33' E 135°27'  

Dump ship's entire track history